Time;durP1;ratioP1;P1;durP2;ratioP2;P2;SDS_P1;SDS_P2;PMS_P1;PMS_P2;Temp;Humidity;BMP_temperature;BMP_pressure;BME280_temperature;BME280_humidity;BME280_pressure;Samples;Min_cycle;Max_cycle;Signal;HPM_P1;HPM_P2
2022/08/27 00:00:00;;;;;;;8.85;3.60;;;20.00;99.90;;;;;;5053161;28;20052;-71
2022/08/27 00:02:26;;;;;;;7.70;2.85;;;20.00;99.90;;;;;;5053525;28;20490;-71
2022/08/27 00:04:52;;;;;;;9.27;3.67;;;20.10;99.90;;;;;;5053282;28;20114;-72
2022/08/27 00:07:18;;;;;;;12.10;4.22;;;20.10;99.90;;;;;;5053196;28;20071;-72
2022/08/27 00:09:44;;;;;;;8.38;3.55;;;20.10;99.90;;;;;;5053289;28;20435;-71
2022/08/27 00:12:12;;;;;;;10.23;4.10;;;20.10;99.90;;;;;;5053199;28;20111;-71
2022/08/27 00:14:38;;;;;;;12.93;4.57;;;20.10;99.90;;;;;;5053146;28;20029;-72
2022/08/27 00:17:06;;;;;;;11.50;4.03;;;20.00;99.90;;;;;;5053068;28;20260;-72
2022/08/27 00:19:33;;;;;;;10.90;3.92;;;19.90;99.90;;;;;;5052769;28;20452;-72
2022/08/27 00:21:58;;;;;;;14.02;3.92;;;20.00;99.90;;;;;;5052970;28;20520;-71
2022/08/27 00:24:24;;;;;;;12.88;3.90;;;19.90;99.90;;;;;;5053051;28;20059;-71
2022/08/27 00:26:52;;;;;;;13.57;4.60;;;20.00;99.90;;;;;;5051555;28;20079;-71
2022/08/27 00:29:18;;;;;;;13.30;4.00;;;20.00;99.90;;;;;;5051409;28;20051;-71
2022/08/27 00:31:45;;;;;;;7.97;4.03;;;20.00;99.90;;;;;;5035151;28;20028;-71
2022/08/27 00:34:11;;;;;;;11.00;4.57;;;19.90;99.90;;;;;;5052864;28;20033;-71
2022/08/27 00:36:36;;;;;;;12.38;4.95;;;19.90;99.90;;;;;;5051391;28;20029;-71
2022/08/27 00:39:03;;;;;;;9.88;4.40;;;19.90;99.90;;;;;;5052658;28;20043;-71
2022/08/27 00:41:29;;;;;;;13.75;5.90;;;20.00;99.90;;;;;;5052681;28;20025;-71
2022/08/27 00:43:57;;;;;;;12.27;5.07;;;19.90;99.90;;;;;;5052378;28;20032;-71
2022/08/27 00:46:34;;;;;;;12.97;5.47;;;20.00;99.90;;;;;;5052500;28;20134;-71
2022/08/27 00:49:15;;;;;;;11.00;4.40;;;20.00;99.90;;;;;;5052316;28;20329;-71
2022/08/27 00:51:41;;;;;;;10.50;3.92;;;20.00;99.90;;;;;;5052401;28;20025;-71
2022/08/27 00:54:08;;;;;;;11.55;3.67;;;20.10;99.90;;;;;;5052478;28;20497;-71
2022/08/27 00:56:43;;;;;;;11.43;4.00;;;20.00;99.90;;;;;;5051648;28;20033;-71
2022/08/27 00:59:11;;;;;;;11.15;3.60;;;20.10;99.90;;;;;;5052218;28;20035;-71
2022/08/27 01:02:17;;;;;;;16.60;4.27;;;20.10;99.90;;;;;;5052177;28;20627;-71
2022/08/27 01:04:23;;;;;;;12.20;3.75;;;20.20;99.90;;;;;;5052044;28;20767;-72
2022/08/27 01:06:49;;;;;;;11.10;3.38;;;20.20;99.90;;;;;;5051953;28;20171;-71
2022/08/27 01:09:16;;;;;;;14.25;4.25;;;20.20;99.90;;;;;;5052177;28;20592;-71
2022/08/27 01:11:43;;;;;;;12.80;3.38;;;20.20;99.90;;;;;;5052214;28;20110;-71
2022/08/27 01:14:09;;;;;;;11.95;3.67;;;20.20;99.90;;;;;;5050810;28;20039;-71
2022/08/27 01:16:40;;;;;;;9.07;3.10;;;20.20;99.90;;;;;;5051942;28;20025;-71
2022/08/27 01:19:13;;;;;;;9.73;3.58;;;20.30;99.90;;;;;;5051921;28;20033;-72
2022/08/27 01:22:18;;;;;;;8.82;3.08;;;20.20;99.90;;;;;;5051807;28;20110;-71
2022/08/27 01:24:48;;;;;;;7.80;2.97;;;20.20;99.90;;;;;;5038927;28;20056;-71
2022/08/27 01:27:19;;;;;;;8.70;2.38;;;20.20;99.90;;;;;;5051569;28;20032;-71
2022/08/27 01:29:45;;;;;;;9.10;3.30;;;20.20;99.90;;;;;;5051412;28;20569;-71
2022/08/27 01:32:19;;;;;;;12.55;2.83;;;20.20;99.90;;;;;;5050638;28;20123;-71
2022/08/27 01:34:45;;;;;;;9.63;2.53;;;20.20;99.90;;;;;;5051617;28;20028;-71
2022/08/27 01:37:13;;;;;;;6.60;2.20;;;20.20;99.90;;;;;;5051692;28;20393;-71
2022/08/27 01:39:40;;;;;;;7.57;2.33;;;20.20;99.90;;;;;;5064127;22;20045;-71
2022/08/27 01:42:27;;;;;;;7.03;2.00;;;20.20;99.90;;;;;;5050457;28;20444;-71
2022/08/27 01:44:57;;;;;;;7.70;2.00;;;20.20;99.90;;;;;;5051413;28;20043;-71
2022/08/27 01:47:26;;;;;;;7.03;1.90;;;20.20;99.60;;;;;;5051366;28;20028;-71
2022/08/27 01:49:51;;;;;;;;;;;20.20;99.70;;;;;;5050695;28;20025;-71
2022/08/27 01:52:20;;;;;;;6.82;2.33;;;20.20;99.70;;;;;;5050246;28;20011;-71
2022/08/27 01:54:46;;;;;;;;;;;20.20;99.50;;;;;;5050695;28;20393;-71
2022/08/27 01:57:14;;;;;;;7.65;2.63;;;20.20;99.50;;;;;;5051160;28;19947;-71
2022/08/27 01:59:40;;;;;;;6.43;2.28;;;20.20;99.40;;;;;;5051024;28;20029;-71
2022/08/27 02:02:09;;;;;;;6.15;1.90;;;20.20;99.30;;;;;;5051407;28;20040;-71
2022/08/27 02:04:35;;;;;;;7.68;1.67;;;20.10;99.40;;;;;;5051200;28;20037;-71
2022/08/27 02:07:01;;;;;;;5.90;1.60;;;20.10;99.50;;;;;;5050609;28;20025;-71
2022/08/27 02:09:27;;;;;;;8.82;1.63;;;20.10;99.30;;;;;;5050930;28;20027;-71
2022/08/27 02:11:53;;;;;;;5.53;1.48;;;20.00;99.30;;;;;;5051048;28;20056;-72
2022/08/27 02:14:19;;;;;;;6.78;1.58;;;20.00;99.40;;;;;;5049754;28;20064;-71
2022/08/27 02:16:45;;;;;;;7.30;1.83;;;20.00;99.40;;;;;;5049666;28;20040;-71
2022/08/27 02:19:11;;;;;;;6.10;1.40;;;20.00;99.50;;;;;;5050750;28;20112;-71
2022/08/27 02:21:37;;;;;;;6.45;2.08;;;20.00;99.40;;;;;;5050846;28;20109;-71
2022/08/27 02:24:03;;;;;;;6.38;2.13;;;20.00;99.50;;;;;;5050788;28;20036;-72
2022/08/27 02:26:29;;;;;;;3.97;1.50;;;20.00;99.40;;;;;;5066182;28;20083;-72
2022/08/27 02:28:55;;;;;;;9.38;1.80;;;20.00;99.40;;;;;;5050787;28;20057;-71
2022/08/27 02:31:22;;;;;;;6.85;1.83;;;20.00;99.30;;;;;;5050871;28;20045;-71
2022/08/27 02:33:48;;;;;;;6.85;1.70;;;20.00;99.10;;;;;;5050794;28;20393;-71
2022/08/27 02:36:16;;;;;;;5.82;1.83;;;20.00;99.10;;;;;;5049621;28;20025;-71
2022/08/27 02:38:42;;;;;;;7.50;2.13;;;20.00;98.90;;;;;;5050471;28;20025;-71
2022/08/27 02:41:08;;;;;;;5.32;1.83;;;19.90;99.00;;;;;;5050595;28;20418;-70
2022/08/27 02:43:34;;;;;;;7.38;1.90;;;19.90;98.90;;;;;;5049422;28;20029;-71
2022/08/27 02:46:01;;;;;;;6.88;1.95;;;19.90;98.80;;;;;;5050578;28;20025;-71
2022/08/27 02:48:27;;;;;;;8.50;2.10;;;19.90;98.70;;;;;;5050704;28;20405;-71
2022/08/27 02:50:53;;;;;;;8.23;2.33;;;19.80;98.60;;;;;;5050430;28;20029;-71
2022/08/27 02:53:19;;;;;;;7.35;1.67;;;19.90;98.80;;;;;;5050607;28;20036;-71
2022/08/27 02:55:46;;;;;;;8.52;1.92;;;19.80;98.80;;;;;;5050464;28;20390;-71
2022/08/27 02:58:15;;;;;;;5.85;1.60;;;19.80;98.70;;;;;;5050452;28;20033;-70
2022/08/27 03:00:44;;;;;;;8.27;2.17;;;19.80;98.90;;;;;;5050552;28;20431;-71
2022/08/27 03:03:10;;;;;;;8.57;2.20;;;19.80;98.90;;;;;;5050490;28;20021;-71
2022/08/27 03:05:37;;;;;;;8.43;2.10;;;19.80;98.90;;;;;;5050547;28;20029;-71
2022/08/27 03:08:04;;;;;;;10.07;2.33;;;19.80;98.90;;;;;;5050319;28;20033;-71
2022/08/27 03:10:30;;;;;;;11.27;2.05;;;19.70;98.80;;;;;;5050306;28;20033;-71
2022/08/27 03:12:56;;;;;;;5.72;1.90;;;19.70;98.90;;;;;;5049153;28;20444;-70
2022/08/27 03:15:23;;;;;;;13.43;2.42;;;19.70;98.90;;;;;;5049182;28;20036;-71
2022/08/27 03:20:39;;;;;;;8.68;2.38;;;19.70;99.00;;;;;;5053834;28;20402;-71
2022/08/27 03:23:06;;;;;;;10.48;1.95;;;19.70;99.20;;;;;;5053994;28;20033;-71
2022/08/27 03:25:32;;;;;;;7.53;2.00;;;19.60;99.10;;;;;;5053983;28;20025;-71
2022/08/27 03:27:58;;;;;;;8.75;1.88;;;19.60;99.60;;;;;;5053912;28;20561;-71
2022/08/27 03:30:24;;;;;;;6.47;2.15;;;19.50;99.30;;;;;;5053681;28;20029;-71
2022/08/27 03:32:50;;;;;;;6.72;1.98;;;19.50;99.30;;;;;;5053766;28;20048;-70
2022/08/27 03:35:18;;;;;;;7.53;2.15;;;19.50;99.40;;;;;;5053736;28;20033;-72
2022/08/27 03:37:44;;;;;;;5.50;1.80;;;19.50;99.30;;;;;;5053737;28;20029;-71
2022/08/27 03:40:11;;;;;;;10.48;2.25;;;19.50;99.10;;;;;;5053435;28;20040;-71
2022/08/27 03:42:37;;;;;;;8.50;2.03;;;19.50;99.10;;;;;;5053646;28;20025;-71
2022/08/27 03:45:05;;;;;;;6.90;2.00;;;19.60;99.10;;;;;;5054177;28;20096;-71
2022/08/27 03:47:32;;;;;;;7.05;1.75;;;19.60;98.90;;;;;;5052006;28;20116;-71
2022/08/27 03:50:01;;;;;;;5.40;1.90;;;19.60;98.80;;;;;;5053667;28;20055;-71
2022/08/27 03:52:28;;;;;;;7.22;1.77;;;19.50;98.60;;;;;;5053585;28;20021;-71
2022/08/27 03:54:54;;;;;;;11.73;2.35;;;19.50;98.80;;;;;;5052196;28;20397;-72
2022/08/27 03:57:20;;;;;;;8.00;2.25;;;19.50;98.60;;;;;;5053467;28;20033;-71
2022/08/27 03:59:46;;;;;;;9.02;2.03;;;19.50;98.60;;;;;;5053143;28;20435;-71
2022/08/27 04:02:12;;;;;;;8.80;2.20;;;19.50;98.60;;;;;;5053237;28;20497;-71
2022/08/27 04:04:37;;;;;;;6.68;2.00;;;19.50;98.70;;;;;;5053249;28;20061;-72
2022/08/27 04:07:03;;;;;;;8.95;2.20;;;19.50;98.60;;;;;;5053079;28;20029;-71
2022/08/27 04:09:29;;;;;;;7.53;2.28;;;19.50;98.60;;;;;;5053037;28;20033;-71
2022/08/27 04:11:55;;;;;;;8.88;2.00;;;19.60;98.30;;;;;;5053027;28;20036;-72
2022/08/27 04:14:21;;;;;;;9.20;3.60;;;19.60;98.20;;;;;;5053150;28;20056;-71
2022/08/27 04:16:47;;;;;;;12.25;3.42;;;19.60;98.20;;;;;;5051637;28;20500;-71
2022/08/27 04:19:14;;;;;;;10.00;4.25;;;19.60;98.40;;;;;;5052953;28;20029;-71
2022/08/27 04:21:40;;;;;;;10.57;3.10;;;19.60;98.10;;;;;;5052832;28;20120;-71
2022/08/27 04:24:06;;;;;;;8.82;2.25;;;19.60;98.10;;;;;;5052815;28;20040;-71
2022/08/27 04:26:32;;;;;;;7.03;2.22;;;19.70;98.10;;;;;;5052738;28;20029;-71
2022/08/27 04:28:58;;;;;;;6.93;2.25;;;19.70;97.80;;;;;;5052612;28;20021;-71
2022/08/27 04:31:24;;;;;;;8.45;2.40;;;19.60;97.70;;;;;;5051543;28;20029;-71
2022/08/27 04:33:52;;;;;;;7.13;2.63;;;19.60;97.60;;;;;;5051550;28;20065;-71
2022/08/27 04:36:18;;;;;;;7.28;2.17;;;19.50;97.60;;;;;;5052663;28;20025;-71
2022/08/27 04:38:45;;;;;;;7.55;2.50;;;19.50;97.40;;;;;;5052351;28;20021;-72
2022/08/27 04:41:21;;;;;;;6.20;2.80;;;19.50;97.60;;;;;;5052637;28;20319;-71
2022/08/27 04:43:57;;;;;;;9.85;2.63;;;19.50;97.50;;;;;;5052406;28;20029;-71
2022/08/27 04:46:29;;;;;;;7.45;2.45;;;19.50;97.50;;;;;;5052391;28;20053;-71
2022/08/27 04:49:00;;;;;;;6.03;2.33;;;19.50;97.40;;;;;;5052292;28;20508;-71
2022/08/27 04:51:28;;;;;;;8.40;2.67;;;19.50;97.40;;;;;;5052216;28;20029;-71
2022/08/27 04:53:54;;;;;;;8.52;2.60;;;19.50;97.50;;;;;;5052276;28;20106;-71
2022/08/27 04:56:22;;;;;;;6.05;2.45;;;19.50;97.50;;;;;;5052089;28;20408;-71
2022/08/27 04:58:51;;;;;;;8.30;2.67;;;19.50;97.60;;;;;;5052266;28;20253;-71
2022/08/27 05:01:21;;;;;;;7.05;2.72;;;19.40;97.50;;;;;;5052061;28;20029;-71
2022/08/27 05:03:47;;;;;;;8.75;2.40;;;19.40;97.40;;;;;;5052365;28;20432;-71
2022/08/27 05:06:14;;;;;;;7.75;2.58;;;19.50;97.40;;;;;;5052217;28;20021;-71
2022/08/27 05:08:40;;;;;;;14.13;2.65;;;19.50;97.50;;;;;;5051928;28;20029;-71
2022/08/27 05:11:09;;;;;;;8.80;2.55;;;19.40;97.50;;;;;;5051796;28;20033;-71
2022/08/27 05:13:36;;;;;;;;;;;19.40;97.50;;;;;;5052422;28;20025;-71
2022/08/27 05:16:08;;;;;;;7.32;2.33;;;19.40;97.70;;;;;;5051827;28;20043;-71
2022/08/27 05:18:36;;;;;;;8.20;2.70;;;19.40;97.50;;;;;;5051642;28;20123;-71
2022/08/27 05:21:03;;;;;;;8.80;2.70;;;19.40;97.60;;;;;;5051657;28;20477;-71
2022/08/27 05:23:29;;;;;;;5.78;2.25;;;19.40;97.70;;;;;;5051566;28;20033;-72
2022/08/27 05:25:56;;;;;;;8.77;2.42;;;19.40;97.70;;;;;;5051747;28;20021;-71
2022/08/27 05:28:24;;;;;;;8.20;2.80;;;19.40;97.70;;;;;;5051786;28;20032;-71
2022/08/27 05:30:53;;;;;;;7.50;2.25;;;19.40;97.70;;;;;;5051576;28;20036;-71
2022/08/27 05:33:23;;;;;;;8.60;2.53;;;19.40;97.80;;;;;;5051705;28;20512;-72
2022/08/27 05:35:52;;;;;;;10.18;2.40;;;19.40;97.80;;;;;;5051434;28;20488;-71
2022/08/27 05:38:17;;;;;;;;;;;19.30;97.70;;;;;;5051789;28;20028;-71
2022/08/27 05:40:46;;;;;;;8.00;2.53;;;19.30;97.80;;;;;;5051411;28;19913;-71
2022/08/27 05:43:13;;;;;;;;;;;19.40;97.80;;;;;;5051801;28;20036;-71
2022/08/27 05:45:41;;;;;;;10.10;2.20;;;19.40;97.70;;;;;;5051310;28;19912;-71
2022/08/27 05:48:09;;;;;;;8.23;2.40;;;19.40;97.70;;;;;;5051536;28;20432;-71
2022/08/27 05:50:35;;;;;;;6.00;1.90;;;19.40;97.60;;;;;;5050977;28;20029;-71
2022/08/27 05:53:01;;;;;;;7.93;2.03;;;19.40;97.60;;;;;;5051339;28;20029;-71
2022/08/27 05:55:27;;;;;;;9.50;2.42;;;19.40;97.70;;;;;;5051339;28;20098;-71
2022/08/27 05:57:52;;;;;;;6.50;2.20;;;19.40;97.60;;;;;;5049727;28;20033;-71
2022/08/27 06:03:03;;;;;;;6.75;3.00;;;19.40;97.50;;;;;;5051040;28;20449;-71
2022/08/27 06:05:29;;;;;;;8.35;2.80;;;19.40;97.60;;;;;;5051074;28;20079;-71
2022/08/27 06:07:54;;;;;;;8.20;2.10;;;19.40;97.40;;;;;;5051010;28;20028;-71
2022/08/27 06:10:20;;;;;;;6.97;1.88;;;19.50;97.30;;;;;;5051106;28;20063;-71
2022/08/27 06:12:46;;;;;;;8.38;2.03;;;19.50;97.40;;;;;;5051016;28;20072;-71
2022/08/27 06:15:12;;;;;;;5.85;2.13;;;19.50;97.30;;;;;;5050926;28;20029;-71
2022/08/27 06:17:38;;;;;;;13.23;2.47;;;19.50;97.40;;;;;;5050636;28;20496;-70
2022/08/27 06:20:04;;;;;;;6.07;1.83;;;19.50;97.40;;;;;;5050668;28;20028;-71
2022/08/27 06:22:30;;;;;;;7.05;2.05;;;19.50;97.10;;;;;;5050938;28;20470;-71
2022/08/27 06:24:57;;;;;;;8.98;2.13;;;19.50;97.20;;;;;;5050776;28;20137;-72
2022/08/27 06:27:23;;;;;;;7.20;2.30;;;19.50;97.20;;;;;;5050850;28;20104;-71
2022/08/27 06:29:48;;;;;;;4.88;1.67;;;19.50;97.20;;;;;;5050602;28;20101;-70
2022/08/27 06:32:14;;;;;;;8.75;2.42;;;19.50;97.10;;;;;;5050771;28;20516;-70
2022/08/27 06:34:41;;;;;;;6.72;1.65;;;19.60;96.90;;;;;;5050713;28;20037;-70
2022/08/27 06:37:07;;;;;;;6.68;2.13;;;19.60;97.00;;;;;;5050667;28;20036;-70
2022/08/27 06:39:34;;;;;;;5.47;2.25;;;19.60;96.90;;;;;;5050426;28;20033;-70
2022/08/27 06:42:01;;;;;;;5.60;1.65;;;19.60;96.90;;;;;;5050813;28;20591;-70
2022/08/27 06:44:32;;;;;;;5.10;1.90;;;19.60;96.70;;;;;;5050647;28;20029;-70
2022/08/27 06:46:58;;;;;;;5.78;1.85;;;19.60;96.80;;;;;;5050791;28;20245;-70
2022/08/27 06:49:24;;;;;;;6.30;1.80;;;19.60;96.80;;;;;;5050596;28;20052;-70
2022/08/27 06:51:50;;;;;;;5.93;1.67;;;19.50;96.70;;;;;;5050505;28;20045;-70
2022/08/27 06:54:18;;;;;;;6.43;1.77;;;19.60;96.80;;;;;;5052870;28;20064;-71
2022/08/27 06:56:44;;;;;;;5.15;1.80;;;19.60;96.90;;;;;;5054620;28;20036;-71
2022/08/27 06:59:14;;;;;;;5.68;1.60;;;19.60;96.80;;;;;;5053172;28;20051;-70
2022/08/27 07:01:44;;;;;;;5.75;1.77;;;19.70;96.70;;;;;;5054385;28;20029;-71
2022/08/27 07:04:15;;;;;;;5.78;2.20;;;19.70;96.60;;;;;;5054706;28;20044;-71
2022/08/27 07:06:41;;;;;;;6.40;2.10;;;19.70;96.60;;;;;;5054224;28;20025;-71
2022/08/27 07:09:08;;;;;;;7.75;1.75;;;19.80;96.60;;;;;;5054265;28;20048;-71
2022/08/27 07:11:35;;;;;;;5.78;1.73;;;19.80;96.50;;;;;;5054067;28;20032;-71
2022/08/27 07:14:01;;;;;;;5.93;1.83;;;19.80;96.40;;;;;;5054368;28;20032;-71
2022/08/27 07:16:28;;;;;;;8.65;2.30;;;19.80;96.40;;;;;;5054424;28;20064;-71
2022/08/27 07:18:56;;;;;;;8.02;2.25;;;19.80;96.40;;;;;;5054069;28;20478;-71
2022/08/27 07:21:23;;;;;;;11.00;4.63;;;19.90;96.20;;;;;;5054035;28;20071;-70
2022/08/27 07:23:51;;;;;;;8.95;3.17;;;19.90;96.30;;;;;;5054021;28;20033;-70
2022/08/27 07:26:18;;;;;;;5.32;1.80;;;19.90;96.40;;;;;;5053748;28;20025;-70
2022/08/27 07:28:46;;;;;;;7.28;2.50;;;20.00;96.50;;;;;;5053965;28;20059;-71
2022/08/27 07:31:15;;;;;;;6.65;2.30;;;20.00;96.40;;;;;;5053883;28;20163;-70
2022/08/27 07:33:42;;;;;;;5.15;1.80;;;20.00;96.10;;;;;;5053859;28;20024;-70
2022/08/27 07:36:08;;;;;;;5.63;1.70;;;20.00;96.10;;;;;;5054205;28;20035;-70
2022/08/27 07:38:36;;;;;;;7.57;2.08;;;20.00;96.20;;;;;;5067298;22;20402;-71
2022/08/27 07:41:06;;;;;;;8.27;2.22;;;20.00;95.80;;;;;;5052075;28;20033;-71
2022/08/27 07:46:17;;;;;;;5.22;1.77;;;20.00;95.90;;;;;;5053658;28;20116;-71
2022/08/27 07:48:43;;;;;;;5.70;1.75;;;20.00;96.00;;;;;;5053536;28;20484;-71
2022/08/27 07:51:19;;;;;;;7.50;1.88;;;20.00;95.90;;;;;;5053669;28;20032;-71
2022/08/27 07:53:46;;;;;;;5.13;1.60;;;20.00;96.00;;;;;;5052290;28;20120;-71
2022/08/27 07:56:13;;;;;;;9.70;2.45;;;20.10;96.00;;;;;;5053537;28;20033;-71
2022/08/27 07:58:40;;;;;;;7.07;2.42;;;20.10;95.90;;;;;;5053221;28;20421;-72
2022/08/27 08:01:06;;;;;;;7.57;2.20;;;20.10;95.90;;;;;;5053297;28;20039;-71
2022/08/27 08:03:33;;;;;;;7.35;2.60;;;20.10;95.90;;;;;;5052350;28;20033;-71
2022/08/27 08:06:11;;;;;;;6.88;2.10;;;20.10;95.80;;;;;;5051878;28;20029;-71
2022/08/27 08:08:39;;;;;;;6.20;1.63;;;20.20;95.80;;;;;;5053298;28;20137;-72
2022/08/27 08:11:10;;;;;;;8.65;2.38;;;20.20;95.70;;;;;;5053167;28;20025;-71
2022/08/27 08:13:37;;;;;;;4.82;1.88;;;20.20;95.70;;;;;;5053674;28;20039;-71
2022/08/27 08:16:04;;;;;;;5.53;1.90;;;20.10;95.70;;;;;;5053121;28;20031;-71
2022/08/27 08:18:30;;;;;;;5.57;1.63;;;20.10;95.70;;;;;;5052927;28;20037;-71
2022/08/27 08:21:01;;;;;;;9.05;2.45;;;20.10;95.80;;;;;;5051628;28;20040;-71
2022/08/27 08:23:28;;;;;;;10.07;3.30;;;20.10;95.70;;;;;;5053017;28;20029;-71
2022/08/27 08:25:54;;;;;;;7.97;2.45;;;20.20;95.70;;;;;;5052777;28;20055;-72
2022/08/27 08:28:20;;;;;;;8.70;2.00;;;20.20;95.70;;;;;;5053175;28;20037;-72
2022/08/27 08:30:46;;;;;;;7.18;2.00;;;20.20;95.60;;;;;;5053952;28;20470;-72
2022/08/27 08:33:12;;;;;;;4.13;1.75;;;20.30;95.50;;;;;;5052729;28;20052;-71
2022/08/27 08:35:39;;;;;;;7.32;2.00;;;20.30;95.40;;;;;;5052665;28;20036;-71
2022/08/27 08:38:05;;;;;;;5.97;1.83;;;20.30;95.30;;;;;;5053165;28;20389;-72
2022/08/27 08:40:39;;;;;;;8.30;2.08;;;20.30;95.20;;;;;;5052278;28;20039;-71
2022/08/27 08:43:20;;;;;;;7.05;2.10;;;20.30;95.20;;;;;;5052567;28;20064;-72
2022/08/27 08:45:47;;;;;;;8.88;2.05;;;20.30;95.20;;;;;;5052619;28;20021;-72
2022/08/27 08:48:19;;;;;;;4.80;1.60;;;20.40;95.20;;;;;;5051262;28;20100;-72
2022/08/27 08:51:07;;;;;;;12.95;4.05;;;20.40;95.20;;;;;;5052231;28;20115;-72
2022/08/27 08:53:57;;;;;;;6.83;3.00;;;20.40;95.10;;;;;;5051282;28;20029;-72
2022/08/27 08:56:47;;;;;;;9.20;2.20;;;20.50;95.30;;;;;;5052281;28;20411;-72
2022/08/27 08:59:24;;;;;;;7.32;2.15;;;20.50;95.10;;;;;;5052167;28;20033;-72
2022/08/27 09:01:51;;;;;;;5.40;1.83;;;20.50;95.10;;;;;;5052214;28;20037;-72
2022/08/27 09:04:17;;;;;;;5.22;1.83;;;20.50;95.10;;;;;;5051892;28;20033;-72
2022/08/27 09:06:57;;;;;;;4.97;2.20;;;20.50;95.00;;;;;;5052114;28;20060;-72
2022/08/27 09:09:52;;;;;;;4.97;1.63;;;20.60;94.80;;;;;;5051120;28;20430;-72
2022/08/27 09:12:25;;;;;;;7.35;1.98;;;20.60;94.70;;;;;;5052121;28;20111;-72
2022/08/27 09:15:00;;;;;;;3.95;1.55;;;20.60;94.50;;;;;;5051952;28;20063;-71
2022/08/27 09:17:27;;;;;;;7.25;2.03;;;20.70;94.40;;;;;;5051576;28;20043;-72
2022/08/27 09:19:53;;;;;;;7.85;1.90;;;20.60;94.40;;;;;;5051707;28;20098;-72
2022/08/27 09:22:41;;;;;;;4.75;1.48;;;20.60;94.30;;;;;;5052077;28;20079;-72
2022/08/27 09:25:10;;;;;;;7.68;2.47;;;20.60;94.50;;;;;;5051746;28;20021;-72
2022/08/27 09:27:40;;;;;;;5.18;2.05;;;20.60;94.60;;;;;;5051946;28;20032;-72
2022/08/27 09:30:13;;;;;;;6.22;1.40;;;20.60;94.10;;;;;;5051470;28;20025;-73
2022/08/27 09:32:39;;;;;;;7.22;1.90;;;20.70;94.20;;;;;;5051761;28;20060;-73
2022/08/27 09:35:10;;;;;;;5.88;1.65;;;20.70;94.20;;;;;;5051693;28;20127;-73
2022/08/27 09:37:43;;;;;;;5.05;1.70;;;20.70;94.20;;;;;;5051507;28;20477;-73
2022/08/27 09:40:22;;;;;;;3.63;1.42;;;20.80;94.20;;;;;;5051204;28;20052;-72
2022/08/27 09:42:52;;;;;;;7.80;1.63;;;20.90;94.10;;;;;;5051620;28;20543;-72
2022/08/27 09:45:27;;;;;;;5.65;1.55;;;20.90;94.10;;;;;;5051524;28;20037;-72
2022/08/27 09:47:54;;;;;;;4.82;1.70;;;20.90;93.90;;;;;;5051514;28;20074;-72
2022/08/27 09:50:34;;;;;;;8.07;2.97;;;20.90;93.90;;;;;;5051230;28;20634;-72
2022/08/27 09:53:00;;;;;;;5.32;2.30;;;20.90;93.90;;;;;;5050238;28;20037;-72
2022/08/27 09:55:51;;;;;;;8.85;2.33;;;20.90;93.80;;;;;;5051363;28;20527;-73
2022/08/27 09:58:48;;;;;;;6.03;2.20;;;21.00;93.80;;;;;;5051337;28;20025;-72
2022/08/27 10:01:19;;;;;;;6.15;1.70;;;21.00;93.50;;;;;;5049757;28;20060;-72
2022/08/27 10:03:45;;;;;;;8.48;2.30;;;21.00;93.50;;;;;;5049849;28;20033;-72
2022/08/27 10:06:11;;;;;;;4.72;1.92;;;21.00;93.70;;;;;;5051095;28;20040;-72
2022/08/27 10:08:49;;;;;;;7.30;1.95;;;21.00;93.70;;;;;;5051025;28;20029;-72
2022/08/27 10:11:18;;;;;;;4.85;1.95;;;21.00;93.40;;;;;;5050927;28;20025;-72
2022/08/27 10:13:52;;;;;;;;;;;21.00;93.50;;;;;;5051669;28;20035;-72
2022/08/27 10:16:46;;;;;;;4.57;1.55;;;20.90;93.30;;;;;;5050885;28;19959;-72
2022/08/27 10:19:49;;;;;;;7.22;1.80;;;21.00;93.60;;;;;;5050662;28;20162;-72
2022/08/27 10:22:30;;;;;;;8.80;2.30;;;21.00;93.50;;;;;;5051004;28;20486;-72
2022/08/27 10:25:02;;;;;;;5.07;1.80;;;21.10;93.50;;;;;;5050777;28;20039;-72
2022/08/27 10:27:58;;;;;;;5.20;2.45;;;21.10;93.20;;;;;;5050460;28;20029;-72
2022/08/27 10:30:45;;;;;;;7.72;3.10;;;21.20;93.20;;;;;;5049332;28;20076;-72
2022/08/27 10:33:14;;;;;;;8.77;3.38;;;21.20;93.10;;;;;;5050760;28;20045;-72
2022/08/27 10:35:48;;;;;;;8.88;2.28;;;21.20;92.80;;;;;;5050725;28;20347;-72
2022/08/27 10:38:32;;;;;;;6.35;2.30;;;21.20;92.70;;;;;;5050660;28;20029;-72
2022/08/27 10:41:02;;;;;;;6.03;2.50;;;21.20;92.60;;;;;;5050629;28;20029;-73
2022/08/27 10:43:54;;;;;;;11.50;3.03;;;21.20;92.80;;;;;;5050766;28;20496;-72
2022/08/27 10:46:43;;;;;;;6.93;2.42;;;21.20;92.60;;;;;;5050410;28;20040;-72
2022/08/27 10:49:18;;;;;;;;;;;21.30;92.60;;;;;;5051007;28;20033;-72
2022/08/27 10:52:02;;;;;;;9.85;3.00;;;21.40;92.50;;;;;;5051037;28;19915;-72
2022/08/27 10:54:37;;;;;;;9.80;4.38;;;21.40;92.50;;;;;;5050833;28;20443;-72
2022/08/27 10:57:11;;;;;;;9.88;3.58;;;21.40;92.60;;;;;;5050919;28;20036;-72
2022/08/27 11:00:11;;;;;;;11.20;4.45;;;21.40;92.80;;;;;;5050799;28;20401;-73
2022/08/27 11:03:16;;;;;;;8.32;4.15;;;21.50;92.70;;;;;;5050327;28;20037;-73
2022/08/27 11:05:45;;;;;;;14.70;3.88;;;21.50;92.80;;;;;;5049933;28;20037;-72
2022/08/27 11:08:26;;;;;;;9.68;3.20;;;21.50;92.30;;;;;;5050472;28;20477;-72
2022/08/27 11:11:06;;;;;;;8.73;3.80;;;21.50;92.50;;;;;;5050499;28;20017;-72
2022/08/27 11:13:44;;;;;;;8.40;3.08;;;21.50;92.40;;;;;;5050557;28;20086;-72
2022/08/27 11:16:26;;;;;;;9.95;3.42;;;21.50;92.30;;;;;;5049200;28;20069;-72
2022/08/27 11:19:18;;;;;;;8.77;3.30;;;21.50;92.20;;;;;;5050307;28;20051;-72
2022/08/27 11:21:57;;;;;;;9.68;3.50;;;21.60;92.30;;;;;;5049007;28;20489;-72
2022/08/27 11:24:42;;;;;;;8.27;2.97;;;21.60;92.20;;;;;;5049102;28;20493;-72
2022/08/27 11:27:08;;;;;;;8.27;2.72;;;21.60;92.20;;;;;;5050294;28;20417;-72
2022/08/27 11:30:04;;;;;;;6.50;2.70;;;21.60;92.20;;;;;;5048768;28;20047;-72
2022/08/27 11:32:45;;;;;;;8.98;2.60;;;21.60;92.30;;;;;;5050316;28;20029;-72
2022/08/27 11:35:21;;;;;;;7.28;2.60;;;21.60;92.20;;;;;;5050334;28;20374;-72
2022/08/27 11:38:07;;;;;;;6.95;2.58;;;21.60;92.10;;;;;;5050059;28;20033;-72
2022/08/27 11:40:48;;;;;;;5.43;2.20;;;21.60;92.00;;;;;;5052166;28;20048;-72
2022/08/27 11:43:21;;;;;;;4.57;2.50;;;21.60;92.00;;;;;;5053473;28;20064;-72
2022/08/27 11:45:57;;;;;;;6.10;2.45;;;21.70;91.80;;;;;;5053577;28;20035;-72
2022/08/27 11:48:41;;;;;;;4.38;2.35;;;21.70;91.80;;;;;;5053601;28;20075;-72
2022/08/27 11:51:13;;;;;;;6.07;2.30;;;21.70;91.70;;;;;;5053492;28;20029;-72
2022/08/27 11:53:55;;;;;;;4.85;2.40;;;21.70;91.70;;;;;;5053631;28;20037;-72
2022/08/27 11:56:27;;;;;;;7.13;2.30;;;21.80;91.80;;;;;;5053428;28;20028;-72
2022/08/27 11:58:53;;;;;;;4.70;2.17;;;21.70;91.70;;;;;;5053254;28;20036;-72
2022/08/27 12:01:30;;;;;;;7.57;2.35;;;21.70;91.50;;;;;;5053224;28;20127;-72
2022/08/27 12:04:01;;;;;;;6.40;2.10;;;21.70;91.70;;;;;;5052109;28;20025;-72
2022/08/27 12:06:28;;;;;;;5.50;1.85;;;21.70;91.60;;;;;;5053215;28;20029;-72
2022/08/27 12:09:12;;;;;;;7.63;2.88;;;21.70;91.80;;;;;;5053197;28;20039;-72
2022/08/27 12:11:44;;;;;;;4.53;2.22;;;21.80;91.50;;;;;;5053239;28;20021;-72
2022/08/27 12:14:38;;;;;;;4.90;2.10;;;21.70;91.20;;;;;;5053083;28;20040;-72
2022/08/27 12:17:24;;;;;;;4.65;2.80;;;21.80;91.50;;;;;;5053056;28;20042;-72
2022/08/27 12:20:28;;;;;;;6.80;3.13;;;21.80;91.40;;;;;;5052768;28;20054;-72
2022/08/27 12:26:14;;;;;;;6.75;2.80;;;21.90;91.30;;;;;;5052908;28;20136;-72
2022/08/27 12:28:40;;;;;;;5.43;2.47;;;21.90;91.10;;;;;;5052659;28;20031;-72
2022/08/27 12:31:06;;;;;;;5.65;2.42;;;21.90;90.80;;;;;;5052666;28;20104;-72
2022/08/27 12:33:42;;;;;;;4.57;2.33;;;21.90;90.80;;;;;;5052886;28;20029;-72
2022/08/27 12:36:14;;;;;;;7.30;4.07;;;22.00;90.80;;;;;;5052650;28;20156;-72
2022/08/27 12:38:48;;;;;;;7.03;3.15;;;22.00;90.70;;;;;;5051196;28;20071;-72
2022/08/27 12:41:30;;;;;;;5.93;2.50;;;22.00;90.60;;;;;;5052516;28;20036;-72
2022/08/27 12:44:26;;;;;;;6.07;3.10;;;22.00;90.60;;;;;;5052580;28;20501;-72
2022/08/27 12:47:15;;;;;;;5.75;2.83;;;22.00;90.70;;;;;;5052007;28;20061;-72
2022/08/27 12:49:47;;;;;;;5.28;1.55;;;22.00;90.50;;;;;;5051096;28;20078;-72
2022/08/27 12:52:33;;;;;;;4.70;2.17;;;22.00;90.60;;;;;;5051857;28;20055;-72
2022/08/27 12:55:15;;;;;;;5.85;2.20;;;22.00;90.70;;;;;;5052431;28;20389;-72
2022/08/27 12:58:05;;;;;;;5.13;2.28;;;22.00;90.60;;;;;;5052225;28;20064;-72
2022/08/27 13:00:55;;;;;;;6.57;3.00;;;22.00;90.70;;;;;;5052160;28;20128;-72
2022/08/27 13:03:21;;;;;;;5.18;1.75;;;22.00;90.70;;;;;;5052174;28;20400;-72
2022/08/27 13:05:55;;;;;;;5.18;1.70;;;22.00;90.60;;;;;;5052179;28;20112;-72
2022/08/27 13:08:30;;;;;;;6.13;2.00;;;22.00;90.70;;;;;;5052284;28;20029;-72
2022/08/27 13:11:07;;;;;;;6.05;2.05;;;22.00;90.70;;;;;;5052011;28;20101;-72
2022/08/27 13:13:32;;;;;;;4.75;1.88;;;21.90;90.90;;;;;;5052200;28;20031;-72
2022/08/27 13:16:02;;;;;;;6.03;2.08;;;21.90;90.80;;;;;;5050834;28;20029;-72
2022/08/27 13:18:28;;;;;;;6.43;2.08;;;21.90;90.90;;;;;;5052112;28;20474;-72